SVMI/CCS METAR and TAF weather

Enter ICAO airport designator
Station Type Date Time Source
SVMI METAR 2021/08/01 17:03 UTC NOAA

SVMI 011703Z AUTO 26007KT NCD 31/25 Q1016


Station Type Date Time Source
SVMI Decoded METAR 2021/08/01 17:03 UTC NOAA

Caracas / Maiquetia Aerop. Intl. Simon Bolivar, Venezuela (SVMI) 10-36N 066-59W 48M
Aug 01, 2021 - 01:03 PM EDT / 2021.08.01 1703 UTC
Wind: from the W (260 degrees) at 8 MPH (7 KT):0
Temperature: 87 F (31 C)
Heat index: 97.5 F (36.4 C):1
Dew Point: 77 F (25 C)
Relative Humidity: 70%
Pressure (altimeter): 30.00 in. Hg (1016 hPa)
ob: SVMI 011703Z AUTO 26007KT NCD 31/25 Q1016
cycle: 17

Station Type Date Time Source
SVMI TAF 2021/08/01 18:05 UTC NOAA

TAF SVMI 011600Z 0118/0218 09005KT 9999 SCT016 TX31/0118Z TN21/0208Z
BECMG 0118/0122 09004KT 9999 FEW016 SCT070

Example: see airport list